sensor_id;sensor_type;location;lat;lon;timestamp;pressure;altitude;pressure_sealevel;temperature;humidity
35655;BME280;21773;50.010;19.972;2022-11-20T00:01:35;98487.91;;;2.82;51.78
35655;BME280;21773;50.010;19.972;2022-11-20T00:04:38;98482.13;;;2.78;51.74
35655;BME280;21773;50.010;19.972;2022-11-20T00:07:42;98486.63;;;2.78;51.44
35655;BME280;21773;50.010;19.972;2022-11-20T00:10:47;98477.50;;;2.72;51.56
35655;BME280;21773;50.010;19.972;2022-11-20T00:13:51;98474.41;;;2.69;51.10
35655;BME280;21773;50.010;19.972;2022-11-20T00:16:54;98476.78;;;2.64;51.05
35655;BME280;21773;50.010;19.972;2022-11-20T00:19:58;98478.13;;;2.59;51.13
35655;BME280;21773;50.010;19.972;2022-11-20T00:23:01;98477.84;;;2.54;51.60
35655;BME280;21773;50.010;19.972;2022-11-20T00:26:08;98477.22;;;2.52;51.11
35655;BME280;21773;50.010;19.972;2022-11-20T00:29:11;98484.34;;;2.52;50.86
35655;BME280;21773;50.010;19.972;2022-11-20T00:32:15;98480.88;;;2.51;50.93
35655;BME280;21773;50.010;19.972;2022-11-20T00:35:18;98484.25;;;2.45;50.78
35655;BME280;21773;50.010;19.972;2022-11-20T00:38:22;98489.66;;;2.37;51.19
35655;BME280;21773;50.010;19.972;2022-11-20T00:41:27;98476.72;;;2.34;50.86
35655;BME280;21773;50.010;19.972;2022-11-20T00:44:31;98471.72;;;2.31;51.08
35655;BME280;21773;50.010;19.972;2022-11-20T00:47:34;98464.28;;;2.27;50.31
35655;BME280;21773;50.010;19.972;2022-11-20T00:50:39;98470.28;;;2.29;50.64
35655;BME280;21773;50.010;19.972;2022-11-20T00:53:42;98463.47;;;2.26;50.70
35655;BME280;21773;50.010;19.972;2022-11-20T00:56:47;98463.66;;;2.25;51.09
35655;BME280;21773;50.010;19.972;2022-11-20T00:59:51;98464.00;;;2.22;50.94
35655;BME280;21773;50.010;19.972;2022-11-20T01:02:55;98466.56;;;2.15;50.64
35655;BME280;21773;50.010;19.972;2022-11-20T01:06:02;98458.31;;;2.10;51.02
35655;BME280;21773;50.010;19.972;2022-11-20T01:09:07;98457.47;;;2.09;50.68
35655;BME280;21773;50.010;19.972;2022-11-20T01:12:12;98456.28;;;2.12;51.13
35655;BME280;21773;50.010;19.972;2022-11-20T01:15:15;98433.50;;;1.95;51.21
35655;BME280;21773;50.010;19.972;2022-11-20T01:18:19;98451.66;;;2.06;51.43
35655;BME280;21773;50.010;19.972;2022-11-20T01:21:24;98449.91;;;1.98;51.59
35655;BME280;21773;50.010;19.972;2022-11-20T01:24:27;98455.88;;;2.00;51.68
35655;BME280;21773;50.010;19.972;2022-11-20T01:27:32;98449.75;;;2.00;51.21
35655;BME280;21773;50.010;19.972;2022-11-20T01:30:35;98443.69;;;2.06;51.05
35655;BME280;21773;50.010;19.972;2022-11-20T01:33:39;98445.34;;;2.07;50.97
35655;BME280;21773;50.010;19.972;2022-11-20T01:36:43;98442.84;;;2.05;50.94
35655;BME280;21773;50.010;19.972;2022-11-20T01:39:47;98440.69;;;2.09;51.17
35655;BME280;21773;50.010;19.972;2022-11-20T01:43:06;98433.53;;;2.09;51.33
35655;BME280;21773;50.010;19.972;2022-11-20T01:46:24;98440.69;;;2.09;50.89
35655;BME280;21773;50.010;19.972;2022-11-20T01:49:31;98435.09;;;2.04;51.00
35655;BME280;21773;50.010;19.972;2022-11-20T01:52:41;98432.22;;;2.05;51.25
35655;BME280;21773;50.010;19.972;2022-11-20T01:55:49;98429.81;;;1.96;51.41
35655;BME280;21773;50.010;19.972;2022-11-20T01:58:57;98430.59;;;2.04;51.01
35655;BME280;21773;50.010;19.972;2022-11-20T02:02:02;98436.91;;;2.03;51.04
35655;BME280;21773;50.010;19.972;2022-11-20T02:05:14;98440.41;;;2.04;50.93
35655;BME280;21773;50.010;19.972;2022-11-20T02:08:21;98432.41;;;2.04;50.63
35655;BME280;21773;50.010;19.972;2022-11-20T02:11:26;98444.59;;;1.98;50.84
35655;BME280;21773;50.010;19.972;2022-11-20T02:14:31;98450.16;;;1.89;51.45
35655;BME280;21773;50.010;19.972;2022-11-20T02:17:33;98443.69;;;1.83;50.83
35655;BME280;21773;50.010;19.972;2022-11-20T02:20:37;98450.84;;;1.83;51.16
35655;BME280;21773;50.010;19.972;2022-11-20T02:24:01;98447.56;;;1.81;51.29
35655;BME280;21773;50.010;19.972;2022-11-20T02:27:07;98456.84;;;1.77;50.72
35655;BME280;21773;50.010;19.972;2022-11-20T02:30:12;98453.22;;;1.78;50.65
35655;BME280;21773;50.010;19.972;2022-11-20T02:33:15;98455.69;;;1.79;50.71
35655;BME280;21773;50.010;19.972;2022-11-20T02:36:19;98457.38;;;1.72;50.27
35655;BME280;21773;50.010;19.972;2022-11-20T02:39:25;98452.81;;;1.66;50.65
35655;BME280;21773;50.010;19.972;2022-11-20T02:42:30;98447.81;;;1.63;50.84
35655;BME280;21773;50.010;19.972;2022-11-20T02:45:33;98458.28;;;1.64;50.98
35655;BME280;21773;50.010;19.972;2022-11-20T02:48:36;98453.97;;;1.63;50.61
35655;BME280;21773;50.010;19.972;2022-11-20T02:51:40;98456.31;;;1.58;51.65
35655;BME280;21773;50.010;19.972;2022-11-20T02:54:44;98462.16;;;1.54;51.60
35655;BME280;21773;50.010;19.972;2022-11-20T02:57:48;98452.91;;;1.50;51.92
35655;BME280;21773;50.010;19.972;2022-11-20T03:00:52;98439.78;;;1.48;51.35
35655;BME280;21773;50.010;19.972;2022-11-20T03:03:55;98449.25;;;1.51;50.92
35655;BME280;21773;50.010;19.972;2022-11-20T03:06:59;98441.28;;;1.51;51.00
35655;BME280;21773;50.010;19.972;2022-11-20T03:10:05;98446.59;;;1.51;50.73
35655;BME280;21773;50.010;19.972;2022-11-20T03:13:09;98443.09;;;1.50;50.09
35655;BME280;21773;50.010;19.972;2022-11-20T03:16:15;98442.50;;;1.40;50.59
35655;BME280;21773;50.010;19.972;2022-11-20T03:19:18;98430.19;;;1.39;50.70
35655;BME280;21773;50.010;19.972;2022-11-20T03:22:22;98440.47;;;1.42;50.76
35655;BME280;21773;50.010;19.972;2022-11-20T03:25:27;98442.59;;;1.47;50.33
35655;BME280;21773;50.010;19.972;2022-11-20T03:28:31;98437.94;;;1.49;50.11
35655;BME280;21773;50.010;19.972;2022-11-20T03:31:36;98431.19;;;1.46;50.71
35655;BME280;21773;50.010;19.972;2022-11-20T03:34:42;98407.50;;;1.37;49.96
35655;BME280;21773;50.010;19.972;2022-11-20T03:37:46;98416.69;;;1.49;50.49
35655;BME280;21773;50.010;19.972;2022-11-20T03:40:57;98416.56;;;1.42;51.32
35655;BME280;21773;50.010;19.972;2022-11-20T03:44:02;98430.25;;;1.31;52.04
35655;BME280;21773;50.010;19.972;2022-11-20T03:47:06;98433.97;;;1.22;52.81
35655;BME280;21773;50.010;19.972;2022-11-20T03:50:11;98410.56;;;1.17;52.61
35655;BME280;21773;50.010;19.972;2022-11-20T03:53:15;98423.16;;;1.23;51.73
35655;BME280;21773;50.010;19.972;2022-11-20T03:56:23;98415.84;;;1.25;51.69
35655;BME280;21773;50.010;19.972;2022-11-20T03:59:27;98425.94;;;1.30;51.11
35655;BME280;21773;50.010;19.972;2022-11-20T04:02:30;98424.13;;;1.30;51.07
35655;BME280;21773;50.010;19.972;2022-11-20T04:05:33;98413.13;;;1.34;50.70
35655;BME280;21773;50.010;19.972;2022-11-20T04:08:37;98414.63;;;1.36;50.95
35655;BME280;21773;50.010;19.972;2022-11-20T04:11:42;98409.13;;;1.38;50.90
35655;BME280;21773;50.010;19.972;2022-11-20T04:14:46;98413.44;;;1.39;50.60
35655;BME280;21773;50.010;19.972;2022-11-20T04:17:49;98416.91;;;1.39;50.83
35655;BME280;21773;50.010;19.972;2022-11-20T04:20:53;98423.28;;;1.30;50.87
35655;BME280;21773;50.010;19.972;2022-11-20T04:23:56;98419.13;;;1.27;51.75
35655;BME280;21773;50.010;19.972;2022-11-20T04:27:01;98416.47;;;1.27;51.00
35655;BME280;21773;50.010;19.972;2022-11-20T04:30:06;98405.34;;;1.32;51.23
35655;BME280;21773;50.010;19.972;2022-11-20T04:33:09;98410.38;;;1.27;50.64
35655;BME280;21773;50.010;19.972;2022-11-20T04:36:14;98401.78;;;1.17;51.06
35655;BME280;21773;50.010;19.972;2022-11-20T04:39:18;98415.41;;;1.14;50.84
35655;BME280;21773;50.010;19.972;2022-11-20T04:42:23;98412.28;;;1.10;50.90
35655;BME280;21773;50.010;19.972;2022-11-20T04:45:32;98411.59;;;1.16;51.06
35655;BME280;21773;50.010;19.972;2022-11-20T04:48:35;98408.72;;;1.18;50.36
35655;BME280;21773;50.010;19.972;2022-11-20T04:51:39;98394.53;;;1.11;50.65
35655;BME280;21773;50.010;19.972;2022-11-20T04:54:43;98400.50;;;1.05;51.11
35655;BME280;21773;50.010;19.972;2022-11-20T04:57:49;98403.75;;;0.92;50.72
35655;BME280;21773;50.010;19.972;2022-11-20T05:00:53;98397.63;;;0.83;51.11
35655;BME280;21773;50.010;19.972;2022-11-20T05:03:56;98391.50;;;0.83;50.88
35655;BME280;21773;50.010;19.972;2022-11-20T05:06:59;98395.78;;;0.84;50.72
35655;BME280;21773;50.010;19.972;2022-11-20T05:10:03;98401.09;;;0.84;50.35
35655;BME280;21773;50.010;19.972;2022-11-20T05:13:08;98401.75;;;0.86;50.60
35655;BME280;21773;50.010;19.972;2022-11-20T05:16:13;98397.59;;;0.92;50.63
35655;BME280;21773;50.010;19.972;2022-11-20T05:19:17;98402.72;;;0.93;50.44
35655;BME280;21773;50.010;19.972;2022-11-20T05:22:21;98395.94;;;0.91;50.58
35655;BME280;21773;50.010;19.972;2022-11-20T05:25:24;98386.47;;;0.88;50.18
35655;BME280;21773;50.010;19.972;2022-11-20T05:28:30;98392.94;;;0.94;50.39
35655;BME280;21773;50.010;19.972;2022-11-20T05:31:33;98389.94;;;0.97;50.71
35655;BME280;21773;50.010;19.972;2022-11-20T05:34:37;98386.94;;;1.00;50.47
35655;BME280;21773;50.010;19.972;2022-11-20T05:37:41;98377.81;;;1.02;50.20
35655;BME280;21773;50.010;19.972;2022-11-20T05:40:45;98374.13;;;1.03;49.77
35655;BME280;21773;50.010;19.972;2022-11-20T05:43:50;98372.97;;;1.06;50.17
35655;BME280;21773;50.010;19.972;2022-11-20T05:46:53;98370.97;;;1.08;50.48
35655;BME280;21773;50.010;19.972;2022-11-20T05:49:57;98367.00;;;1.04;50.34
35655;BME280;21773;50.010;19.972;2022-11-20T05:53:01;98368.66;;;1.05;50.55
35655;BME280;21773;50.010;19.972;2022-11-20T05:56:08;98376.63;;;1.05;50.53
35655;BME280;21773;50.010;19.972;2022-11-20T05:59:14;98376.63;;;1.05;49.91
35655;BME280;21773;50.010;19.972;2022-11-20T06:02:17;98379.28;;;1.05;49.79
35655;BME280;21773;50.010;19.972;2022-11-20T06:05:21;98370.66;;;1.03;49.91
35655;BME280;21773;50.010;19.972;2022-11-20T06:08:24;98373.50;;;1.01;51.21
35655;BME280;21773;50.010;19.972;2022-11-20T06:11:27;98358.63;;;0.92;49.83
35655;BME280;21773;50.010;19.972;2022-11-20T06:14:32;98375.97;;;1.03;50.38
35655;BME280;21773;50.010;19.972;2022-11-20T06:17:35;98377.28;;;1.07;50.35
35655;BME280;21773;50.010;19.972;2022-11-20T06:20:39;98375.09;;;1.10;49.77
35655;BME280;21773;50.010;19.972;2022-11-20T06:23:43;98373.13;;;1.12;49.80
35655;BME280;21773;50.010;19.972;2022-11-20T06:26:47;98375.94;;;1.11;50.63
35655;BME280;21773;50.010;19.972;2022-11-20T06:29:52;98378.13;;;1.07;50.57
35655;BME280;21773;50.010;19.972;2022-11-20T06:32:55;98360.34;;;1.08;50.72
35655;BME280;21773;50.010;19.972;2022-11-20T06:35:59;98363.44;;;1.19;51.00
35655;BME280;21773;50.010;19.972;2022-11-20T06:39:11;98358.91;;;1.28;50.72
35655;BME280;21773;50.010;19.972;2022-11-20T06:42:14;98355.84;;;1.39;50.89
35655;BME280;21773;50.010;19.972;2022-11-20T06:45:19;98355.59;;;1.49;50.75
35655;BME280;21773;50.010;19.972;2022-11-20T06:48:23;98351.34;;;1.62;50.86
35655;BME280;21773;50.010;19.972;2022-11-20T06:51:26;98368.25;;;1.69;52.23
35655;BME280;21773;50.010;19.972;2022-11-20T06:54:30;98351.88;;;1.81;52.84
35655;BME280;21773;50.010;19.972;2022-11-20T06:57:33;98354.56;;;1.95;53.16
35655;BME280;21773;50.010;19.972;2022-11-20T07:00:38;98353.28;;;2.06;53.61
35655;BME280;21773;50.010;19.972;2022-11-20T07:03:42;98362.28;;;2.05;53.39
35655;BME280;21773;50.010;19.972;2022-11-20T07:06:53;98352.25;;;1.92;53.78
35655;BME280;21773;50.010;19.972;2022-11-20T07:09:57;98367.56;;;1.90;53.86
35655;BME280;21773;50.010;19.972;2022-11-20T07:13:00;98368.63;;;1.81;54.31
35655;BME280;21773;50.010;19.972;2022-11-20T07:16:07;98368.81;;;1.80;54.34
35655;BME280;21773;50.010;19.972;2022-11-20T07:19:11;98369.13;;;1.85;54.65
35655;BME280;21773;50.010;19.972;2022-11-20T07:22:14;98359.97;;;2.02;54.12
35655;BME280;21773;50.010;19.972;2022-11-20T07:25:17;98360.63;;;2.04;53.98
35655;BME280;21773;50.010;19.972;2022-11-20T07:28:20;98371.19;;;2.12;53.63
35655;BME280;21773;50.010;19.972;2022-11-20T07:31:25;98367.94;;;2.02;53.74
35655;BME280;21773;50.010;19.972;2022-11-20T07:34:28;98366.75;;;1.90;54.22
35655;BME280;21773;50.010;19.972;2022-11-20T07:37:34;98371.56;;;1.86;53.76
35655;BME280;21773;50.010;19.972;2022-11-20T07:40:37;98380.13;;;1.96;54.02
35655;BME280;21773;50.010;19.972;2022-11-20T07:43:40;98391.97;;;1.94;54.21
35655;BME280;21773;50.010;19.972;2022-11-20T07:46:45;98383.00;;;1.95;54.16
35655;BME280;21773;50.010;19.972;2022-11-20T07:49:48;98392.72;;;2.02;53.71
35655;BME280;21773;50.010;19.972;2022-11-20T07:52:51;98392.88;;;2.01;53.99
35655;BME280;21773;50.010;19.972;2022-11-20T07:55:59;98388.94;;;1.97;53.54
35655;BME280;21773;50.010;19.972;2022-11-20T07:59:03;98388.88;;;2.05;53.74
35655;BME280;21773;50.010;19.972;2022-11-20T08:02:10;98393.19;;;2.21;53.75
35655;BME280;21773;50.010;19.972;2022-11-20T08:05:14;98378.34;;;2.26;54.26
35655;BME280;21773;50.010;19.972;2022-11-20T08:08:17;98391.34;;;2.58;53.54
35655;BME280;21773;50.010;19.972;2022-11-20T08:11:21;98392.13;;;2.74;53.38
35655;BME280;21773;50.010;19.972;2022-11-20T08:14:42;98395.84;;;2.87;52.94
35655;BME280;21773;50.010;19.972;2022-11-20T08:17:47;98394.53;;;2.98;52.59
35655;BME280;21773;50.010;19.972;2022-11-20T08:21:10;98385.03;;;3.10;52.70
35655;BME280;21773;50.010;19.972;2022-11-20T08:24:13;98383.56;;;3.22;52.61
35655;BME280;21773;50.010;19.972;2022-11-20T08:27:16;98381.03;;;3.35;52.46
35655;BME280;21773;50.010;19.972;2022-11-20T08:30:20;98377.91;;;3.46;52.04
35655;BME280;21773;50.010;19.972;2022-11-20T08:33:24;98381.88;;;3.57;51.76
35655;BME280;21773;50.010;19.972;2022-11-20T08:36:28;98371.72;;;3.67;51.40
35655;BME280;21773;50.010;19.972;2022-11-20T08:39:31;98372.88;;;3.79;51.40
35655;BME280;21773;50.010;19.972;2022-11-20T08:42:34;98368.63;;;3.85;50.60
35655;BME280;21773;50.010;19.972;2022-11-20T08:45:38;98370.50;;;3.91;50.96
35655;BME280;21773;50.010;19.972;2022-11-20T08:48:43;98371.22;;;4.00;50.64
35655;BME280;21773;50.010;19.972;2022-11-20T08:51:47;98372.34;;;4.12;50.80
35655;BME280;21773;50.010;19.972;2022-11-20T08:54:53;98371.63;;;4.24;50.56
35655;BME280;21773;50.010;19.972;2022-11-20T08:57:56;98365.50;;;4.30;50.21
35655;BME280;21773;50.010;19.972;2022-11-20T09:00:59;98360.97;;;4.31;50.10
35655;BME280;21773;50.010;19.972;2022-11-20T09:04:05;98362.63;;;4.32;49.71
35655;BME280;21773;50.010;19.972;2022-11-20T09:07:08;98370.34;;;4.20;50.03
35655;BME280;21773;50.010;19.972;2022-11-20T09:10:11;98358.25;;;3.97;49.17
35655;BME280;21773;50.010;19.972;2022-11-20T09:13:27;98355.81;;;4.02;50.14
35655;BME280;21773;50.010;19.972;2022-11-20T09:16:30;98348.31;;;4.12;50.67
35655;BME280;21773;50.010;19.972;2022-11-20T09:19:35;98350.06;;;4.26;50.51
35655;BME280;21773;50.010;19.972;2022-11-20T09:22:39;98350.13;;;4.32;49.82
35655;BME280;21773;50.010;19.972;2022-11-20T09:25:43;98352.00;;;4.39;50.38
35655;BME280;21773;50.010;19.972;2022-11-20T09:28:47;98354.94;;;4.44;49.81
35655;BME280;21773;50.010;19.972;2022-11-20T09:31:56;98343.41;;;4.43;49.45
35655;BME280;21773;50.010;19.972;2022-11-20T09:35:00;98345.31;;;4.49;49.70
35655;BME280;21773;50.010;19.972;2022-11-20T09:38:05;98346.81;;;4.58;49.62
35655;BME280;21773;50.010;19.972;2022-11-20T09:41:24;98346.81;;;4.65;49.38
35655;BME280;21773;50.010;19.972;2022-11-20T09:44:50;98351.84;;;4.81;49.91
35655;BME280;21773;50.010;19.972;2022-11-20T09:51:36;98363.09;;;5.17;49.57
35655;BME280;21773;50.010;19.972;2022-11-20T09:54:44;98356.16;;;5.30;49.75
35655;BME280;21773;50.010;19.972;2022-11-20T09:57:48;98356.59;;;5.40;49.55
35655;BME280;21773;50.010;19.972;2022-11-20T10:00:54;98361.34;;;5.51;49.88
35655;BME280;21773;50.010;19.972;2022-11-20T10:04:02;98360.31;;;5.58;49.56
35655;BME280;21773;50.010;19.972;2022-11-20T10:07:13;98353.34;;;5.64;49.28
35655;BME280;21773;50.010;19.972;2022-11-20T10:10:36;98365.69;;;5.58;48.50
35655;BME280;21773;50.010;19.972;2022-11-20T10:13:50;98362.78;;;5.53;48.82
35655;BME280;21773;50.010;19.972;2022-11-20T10:17:02;98363.81;;;5.52;48.79
35655;BME280;21773;50.010;19.972;2022-11-20T10:20:16;98363.41;;;5.49;49.51
35655;BME280;21773;50.010;19.972;2022-11-20T10:23:40;98355.00;;;5.52;49.75
35655;BME280;21773;50.010;19.972;2022-11-20T10:26:55;98356.63;;;5.46;48.92
35655;BME280;21773;50.010;19.972;2022-11-20T10:30:07;98361.97;;;5.46;49.28
35655;BME280;21773;50.010;19.972;2022-11-20T10:33:15;98344.66;;;5.36;49.39
35655;BME280;21773;50.010;19.972;2022-11-20T10:36:23;98351.25;;;5.40;49.38
35655;BME280;21773;50.010;19.972;2022-11-20T10:39:35;98349.00;;;5.50;49.58
35655;BME280;21773;50.010;19.972;2022-11-20T10:42:44;98344.69;;;5.49;49.88
35655;BME280;21773;50.010;19.972;2022-11-20T10:45:52;98337.91;;;5.46;49.89
35655;BME280;21773;50.010;19.972;2022-11-20T10:48:57;98330.28;;;5.43;49.86
35655;BME280;21773;50.010;19.972;2022-11-20T10:52:07;98326.81;;;5.56;50.22
35655;BME280;21773;50.010;19.972;2022-11-20T10:55:25;98315.28;;;5.55;49.71
35655;BME280;21773;50.010;19.972;2022-11-20T10:58:39;98310.56;;;5.51;49.94
35655;BME280;21773;50.010;19.972;2022-11-20T11:01:44;98316.94;;;5.50;50.35
35655;BME280;21773;50.010;19.972;2022-11-20T11:04:49;98318.56;;;5.57;50.18
35655;BME280;21773;50.010;19.972;2022-11-20T11:07:54;98307.28;;;5.75;49.91
35655;BME280;21773;50.010;19.972;2022-11-20T11:11:05;98297.25;;;5.90;49.11
35655;BME280;21773;50.010;19.972;2022-11-20T11:14:14;98287.56;;;6.02;48.76
35655;BME280;21773;50.010;19.972;2022-11-20T11:17:22;98297.44;;;6.15;49.11
35655;BME280;21773;50.010;19.972;2022-11-20T11:20:26;98284.03;;;6.28;49.45
35655;BME280;21773;50.010;19.972;2022-11-20T11:23:32;98280.91;;;6.38;49.04
35655;BME280;21773;50.010;19.972;2022-11-20T11:26:37;98283.19;;;6.34;48.92
35655;BME280;21773;50.010;19.972;2022-11-20T11:29:41;98286.50;;;6.30;49.23
35655;BME280;21773;50.010;19.972;2022-11-20T11:32:44;98276.97;;;6.40;49.40
35655;BME280;21773;50.010;19.972;2022-11-20T11:35:50;98278.19;;;6.51;49.61
35655;BME280;21773;50.010;19.972;2022-11-20T11:38:54;98283.28;;;6.66;49.30
35655;BME280;21773;50.010;19.972;2022-11-20T11:42:00;98280.66;;;6.59;49.46
35655;BME280;21773;50.010;19.972;2022-11-20T11:45:06;98264.97;;;6.69;49.26
35655;BME280;21773;50.010;19.972;2022-11-20T11:48:09;98257.91;;;6.75;49.39
35655;BME280;21773;50.010;19.972;2022-11-20T11:51:19;98253.56;;;6.80;49.20
35655;BME280;21773;50.010;19.972;2022-11-20T11:54:25;98259.09;;;6.85;49.14
35655;BME280;21773;50.010;19.972;2022-11-20T11:57:39;98248.38;;;6.92;48.66
35655;BME280;21773;50.010;19.972;2022-11-20T12:00:51;98244.03;;;6.97;48.48
35655;BME280;21773;50.010;19.972;2022-11-20T12:04:03;98240.69;;;7.02;48.18
35655;BME280;21773;50.010;19.972;2022-11-20T12:07:11;98237.00;;;6.96;48.22
35655;BME280;21773;50.010;19.972;2022-11-20T12:10:43;98239.19;;;7.13;48.63
35655;BME280;21773;50.010;19.972;2022-11-20T12:13:54;98241.81;;;7.19;48.27
35655;BME280;21773;50.010;19.972;2022-11-20T12:17:03;98227.41;;;7.14;48.09
35655;BME280;21773;50.010;19.972;2022-11-20T12:20:11;98250.22;;;7.29;48.07
35655;BME280;21773;50.010;19.972;2022-11-20T12:23:21;98243.81;;;7.30;48.00
35655;BME280;21773;50.010;19.972;2022-11-20T12:26:46;98254.38;;;7.25;47.95
35655;BME280;21773;50.010;19.972;2022-11-20T12:30:01;98257.88;;;7.26;48.00
35655;BME280;21773;50.010;19.972;2022-11-20T12:33:16;98255.41;;;7.24;48.00
35655;BME280;21773;50.010;19.972;2022-11-20T12:36:29;98237.97;;;7.09;48.40
35655;BME280;21773;50.010;19.972;2022-11-20T12:39:35;98247.53;;;7.29;48.49
35655;BME280;21773;50.010;19.972;2022-11-20T12:42:47;98243.53;;;7.38;48.09
35655;BME280;21773;50.010;19.972;2022-11-20T12:46:24;98236.13;;;7.40;48.48
35655;BME280;21773;50.010;19.972;2022-11-20T12:49:35;98231.75;;;7.46;48.48
35655;BME280;21773;50.010;19.972;2022-11-20T12:52:47;98241.75;;;7.32;48.05
35655;BME280;21773;50.010;19.972;2022-11-20T12:56:00;98242.25;;;7.16;48.85
35655;BME280;21773;50.010;19.972;2022-11-20T12:59:30;98229.06;;;7.15;49.21
35655;BME280;21773;50.010;19.972;2022-11-20T13:02:50;98217.94;;;7.18;49.22
35655;BME280;21773;50.010;19.972;2022-11-20T13:06:08;98225.91;;;7.24;49.01
35655;BME280;21773;50.010;19.972;2022-11-20T13:09:15;98222.66;;;7.16;49.21
35655;BME280;21773;50.010;19.972;2022-11-20T13:12:24;98211.41;;;7.01;49.28
35655;BME280;21773;50.010;19.972;2022-11-20T13:15:40;98198.47;;;6.97;49.74
35655;BME280;21773;50.010;19.972;2022-11-20T13:18:49;98202.72;;;7.05;50.40
35655;BME280;21773;50.010;19.972;2022-11-20T13:21:52;98194.28;;;7.08;50.26
35655;BME280;21773;50.010;19.972;2022-11-20T13:24:56;98184.97;;;7.11;50.42
35655;BME280;21773;50.010;19.972;2022-11-20T13:28:01;98195.25;;;7.14;49.92
35655;BME280;21773;50.010;19.972;2022-11-20T13:31:28;98190.69;;;7.21;50.09
35655;BME280;21773;50.010;19.972;2022-11-20T13:34:34;98129.13;;;7.08;49.89
35655;BME280;21773;50.010;19.972;2022-11-20T13:37:38;98159.16;;;7.41;49.52
35655;BME280;21773;50.010;19.972;2022-11-20T13:40:51;98157.50;;;7.65;49.34
35655;BME280;21773;50.010;19.972;2022-11-20T13:43:57;98157.38;;;7.78;49.15
35655;BME280;21773;50.010;19.972;2022-11-20T13:47:20;98157.25;;;7.91;48.67
35655;BME280;21773;50.010;19.972;2022-11-20T13:50:39;98162.03;;;7.89;48.57
35655;BME280;21773;50.010;19.972;2022-11-20T13:53:57;98156.34;;;7.79;48.69
35655;BME280;21773;50.010;19.972;2022-11-20T13:57:16;98163.53;;;7.60;48.90
35655;BME280;21773;50.010;19.972;2022-11-20T14:00:25;98162.06;;;7.39;49.24
35655;BME280;21773;50.010;19.972;2022-11-20T14:03:30;98173.31;;;7.23;49.58
35655;BME280;21773;50.010;19.972;2022-11-20T14:06:58;98182.59;;;6.96;50.09
35655;BME280;21773;50.010;19.972;2022-11-20T14:10:02;98177.78;;;6.73;50.79
35655;BME280;21773;50.010;19.972;2022-11-20T14:13:15;98166.72;;;6.57;51.19
35655;BME280;21773;50.010;19.972;2022-11-20T14:16:20;98166.06;;;6.68;51.32
35655;BME280;21773;50.010;19.972;2022-11-20T14:19:27;98172.28;;;6.55;51.59
35655;BME280;21773;50.010;19.972;2022-11-20T14:22:34;98152.97;;;6.46;51.66
35655;BME280;21773;50.010;19.972;2022-11-20T14:25:41;98155.28;;;6.36;52.04
35655;BME280;21773;50.010;19.972;2022-11-20T14:28:48;98159.03;;;6.29;51.93
35655;BME280;21773;50.010;19.972;2022-11-20T14:31:53;98158.41;;;6.27;52.04
35655;BME280;21773;50.010;19.972;2022-11-20T14:35:02;98157.22;;;6.16;52.37
35655;BME280;21773;50.010;19.972;2022-11-20T14:38:13;98150.72;;;5.92;52.64
35655;BME280;21773;50.010;19.972;2022-11-20T14:41:18;98149.50;;;5.75;53.03
35655;BME280;21773;50.010;19.972;2022-11-20T14:44:26;98148.91;;;5.66;53.31
35655;BME280;21773;50.010;19.972;2022-11-20T14:47:31;98136.38;;;5.60;53.55
35655;BME280;21773;50.010;19.972;2022-11-20T14:50:35;98143.56;;;5.60;53.40
35655;BME280;21773;50.010;19.972;2022-11-20T14:53:40;98138.22;;;5.53;53.75
35655;BME280;21773;50.010;19.972;2022-11-20T14:56:53;98142.13;;;5.44;53.84
35655;BME280;21773;50.010;19.972;2022-11-20T15:00:05;98130.84;;;5.29;54.11
35655;BME280;21773;50.010;19.972;2022-11-20T15:03:15;98133.72;;;5.14;54.61
35655;BME280;21773;50.010;19.972;2022-11-20T15:06:25;98129.78;;;5.04;54.70
35655;BME280;21773;50.010;19.972;2022-11-20T15:09:30;98109.03;;;4.86;54.58
35655;BME280;21773;50.010;19.972;2022-11-20T15:12:36;98128.34;;;4.95;54.58
35655;BME280;21773;50.010;19.972;2022-11-20T15:15:45;98116.44;;;4.84;54.71
35655;BME280;21773;50.010;19.972;2022-11-20T15:18:49;98134.94;;;4.92;54.94
35655;BME280;21773;50.010;19.972;2022-11-20T15:21:53;98138.22;;;4.94;55.29
35655;BME280;21773;50.010;19.972;2022-11-20T15:24:59;98143.16;;;4.97;55.46
35655;BME280;21773;50.010;19.972;2022-11-20T15:28:04;98130.81;;;4.90;55.53
35655;BME280;21773;50.010;19.972;2022-11-20T15:31:12;98128.38;;;4.88;55.81
35655;BME280;21773;50.010;19.972;2022-11-20T15:34:16;98115.81;;;4.82;55.93
35655;BME280;21773;50.010;19.972;2022-11-20T15:37:19;98129.19;;;4.95;55.38
35655;BME280;21773;50.010;19.972;2022-11-20T15:40:32;98124.69;;;5.02;55.83
35655;BME280;21773;50.010;19.972;2022-11-20T15:43:35;98108.41;;;5.04;55.87
35655;BME280;21773;50.010;19.972;2022-11-20T15:46:40;98111.09;;;5.10;55.61
35655;BME280;21773;50.010;19.972;2022-11-20T15:49:46;98106.41;;;5.12;55.40
35655;BME280;21773;50.010;19.972;2022-11-20T15:52:49;98109.06;;;5.06;55.82
35655;BME280;21773;50.010;19.972;2022-11-20T15:55:54;98084.41;;;4.97;55.80
35655;BME280;21773;50.010;19.972;2022-11-20T15:58:58;98094.88;;;5.12;55.58
35655;BME280;21773;50.010;19.972;2022-11-20T16:02:01;98103.09;;;5.17;55.75
35655;BME280;21773;50.010;19.972;2022-11-20T16:05:09;98092.19;;;5.25;55.59
35655;BME280;21773;50.010;19.972;2022-11-20T16:08:14;98087.47;;;5.27;55.52
35655;BME280;21773;50.010;19.972;2022-11-20T16:11:19;98091.13;;;5.33;55.53
35655;BME280;21773;50.010;19.972;2022-11-20T16:14:22;98105.31;;;5.33;55.33
35655;BME280;21773;50.010;19.972;2022-11-20T16:17:43;98102.84;;;5.38;55.46
35655;BME280;21773;50.010;19.972;2022-11-20T16:20:48;98110.88;;;5.45;55.42
35655;BME280;21773;50.010;19.972;2022-11-20T16:23:51;98115.41;;;5.51;55.39
35655;BME280;21773;50.010;19.972;2022-11-20T16:26:57;98104.69;;;5.57;55.25
35655;BME280;21773;50.010;19.972;2022-11-20T16:30:00;98110.84;;;5.58;54.99
35655;BME280;21773;50.010;19.972;2022-11-20T16:33:04;98116.00;;;5.53;54.99